Time;durP1;ratioP1;P1;durP2;ratioP2;P2;SDS_P1;SDS_P2;PMS_P1;PMS_P2;Temp;Humidity;BMP_temperature;BMP_pressure;BME280_temperature;BME280_humidity;BME280_pressure;Samples;Min_cycle;Max_cycle;Signal;HPM_P1;HPM_P2
2021/06/19 00:00:31;;;;;;;15.48;6.32;;;27.30;52.50;;;;;;4956227;28;20381;-71
2021/06/19 00:02:58;;;;;;;10.45;5.97;;;27.20;52.60;;;;;;4956415;28;20027;-71
2021/06/19 00:05:25;;;;;;;10.57;6.05;;;27.00;52.50;;;;;;4956477;28;20412;-70
2021/06/19 00:07:51;;;;;;;15.15;6.30;;;27.00;52.60;;;;;;4956147;28;20035;-71
2021/06/19 00:10:18;;;;;;;12.48;6.35;;;27.00;52.50;;;;;;4956305;28;20024;-72
2021/06/19 00:12:45;;;;;;;10.68;5.55;;;26.80;52.90;;;;;;4956133;28;20062;-70
2021/06/19 00:15:14;;;;;;;12.82;5.13;;;26.70;53.10;;;;;;4956011;28;20102;-72
2021/06/19 00:17:40;;;;;;;12.00;5.82;;;26.60;53.00;;;;;;4955933;28;20016;-70
2021/06/19 00:20:14;;;;;;;13.15;5.63;;;26.60;53.60;;;;;;4956021;28;20476;-71
2021/06/19 00:22:41;;;;;;;11.68;5.72;;;26.70;52.50;;;;;;4956260;28;20058;-72
2021/06/19 00:25:09;;;;;;;11.27;5.70;;;26.80;53.60;;;;;;4955960;28;20027;-70
2021/06/19 00:27:35;;;;;;;16.55;6.82;;;26.70;53.30;;;;;;4955636;28;20039;-70
2021/06/19 00:30:03;;;;;;;12.02;5.55;;;26.70;53.70;;;;;;4955755;28;20066;-71
2021/06/19 00:32:28;;;;;;;14.50;5.57;;;27.00;53.20;;;;;;4956125;28;20499;-71
2021/06/19 00:34:54;;;;;;;13.27;6.10;;;27.30;53.00;;;;;;4954424;28;20016;-72
2021/06/19 00:37:20;;;;;;;9.73;5.22;;;27.50;52.80;;;;;;4955737;28;20028;-71
2021/06/19 00:39:45;;;;;;;11.73;6.00;;;27.60;52.60;;;;;;4955522;28;20432;-71
2021/06/19 00:42:11;;;;;;;11.45;5.30;;;27.30;52.80;;;;;;4955595;28;20078;-70
2021/06/19 00:44:37;;;;;;;12.07;5.63;;;27.40;53.10;;;;;;4955599;28;20087;-71
2021/06/19 00:47:03;;;;;;;9.55;5.47;;;27.50;52.80;;;;;;4955430;28;20054;-70
2021/06/19 00:49:29;;;;;;;14.15;5.10;;;27.50;52.80;;;;;;4955455;28;20030;-71
2021/06/19 00:51:54;;;;;;;13.98;5.20;;;27.50;53.00;;;;;;4955465;28;20102;-71
2021/06/19 00:54:20;;;;;;;18.63;5.70;;;27.40;53.20;;;;;;4955259;28;20453;-71
2021/06/19 00:56:46;;;;;;;11.02;5.50;;;27.20;53.80;;;;;;4955201;28;20019;-71
2021/06/19 00:59:14;;;;;;;11.10;5.78;;;27.20;53.40;;;;;;4955344;28;20464;-70
2021/06/19 01:01:40;;;;;;;15.55;5.78;;;27.40;53.70;;;;;;4955546;28;20146;-71
2021/06/19 01:04:06;;;;;;;12.60;6.05;;;27.60;53.20;;;;;;4955300;28;20094;-71
2021/06/19 01:06:35;;;;;;;10.38;6.07;;;27.70;53.20;;;;;;4954959;28;20049;-71
2021/06/19 01:09:02;;;;;;;13.40;6.00;;;27.70;53.60;;;;;;4953701;29;20158;-72
2021/06/19 01:11:30;;;;;;;14.45;6.03;;;27.60;53.60;;;;;;4954864;28;20110;-72
2021/06/19 01:13:57;;;;;;;11.63;5.80;;;27.50;53.60;;;;;;4953720;29;20369;-71
2021/06/19 01:16:22;;;;;;;10.95;6.15;;;27.20;54.10;;;;;;4954970;28;20046;-71
2021/06/19 01:18:48;;;;;;;10.02;5.90;;;26.90;54.40;;;;;;4954899;28;20485;-70
2021/06/19 01:21:19;;;;;;;10.05;6.13;;;26.80;54.80;;;;;;4954799;28;20071;-70
2021/06/19 01:23:46;;;;;;;8.95;5.95;;;26.90;55.10;;;;;;4954994;28;20086;-70
2021/06/19 01:26:17;;;;;;;9.50;5.70;;;27.10;54.80;;;;;;4954906;28;20028;-71
2021/06/19 01:28:46;;;;;;;10.70;5.75;;;27.20;54.80;;;;;;4955305;28;20115;-70
2021/06/19 01:31:12;;;;;;;12.43;6.13;;;27.10;54.80;;;;;;4955292;28;20102;-71
2021/06/19 01:33:39;;;;;;;11.48;6.35;;;27.10;54.90;;;;;;4954905;28;20015;-70
2021/06/19 01:36:06;;;;;;;13.07;6.72;;;27.00;55.10;;;;;;4954658;28;20183;-70
2021/06/19 01:38:37;;;;;;;10.27;5.60;;;27.00;55.00;;;;;;4953771;29;20130;-70
2021/06/19 01:41:02;;;;;;;14.35;6.40;;;27.00;54.90;;;;;;4954695;28;20031;-70
2021/06/19 01:43:28;;;;;;;13.48;6.07;;;26.90;54.80;;;;;;4954567;28;20333;-69
2021/06/19 01:45:54;;;;;;;9.98;5.95;;;26.60;56.10;;;;;;4954664;28;20524;-70
2021/06/19 01:48:19;;;;;;;13.75;6.20;;;26.70;56.00;;;;;;4954841;28;20027;-69
2021/06/19 01:50:45;;;;;;;10.43;6.05;;;26.50;56.30;;;;;;4953326;28;20476;-70
2021/06/19 01:53:11;;;;;;;9.52;5.28;;;26.50;56.40;;;;;;4954734;28;20437;-71
2021/06/19 01:55:37;;;;;;;12.80;6.07;;;26.40;56.30;;;;;;4954527;28;20365;-70
2021/06/19 01:58:03;;;;;;;12.90;6.00;;;26.60;56.50;;;;;;4954612;28;20077;-70
2021/06/19 02:00:31;;;;;;;14.73;5.75;;;26.80;56.10;;;;;;4954473;28;20110;-70
2021/06/19 02:02:57;;;;;;;10.20;6.05;;;27.00;56.00;;;;;;4954788;28;20059;-70
2021/06/19 02:05:24;;;;;;;9.50;5.35;;;27.10;55.50;;;;;;4954440;28;20138;-71
2021/06/19 02:07:51;;;;;;;13.88;6.25;;;27.10;55.50;;;;;;4954470;28;20069;-72
2021/06/19 02:10:18;;;;;;;12.88;6.50;;;26.90;55.50;;;;;;4954443;28;20051;-70
2021/06/19 02:12:45;;;;;;;14.50;6.60;;;26.60;55.90;;;;;;4958014;28;20051;-70
2021/06/19 02:15:12;;;;;;;9.77;6.18;;;26.50;56.40;;;;;;4958030;28;20097;-71
2021/06/19 02:17:37;;;;;;;10.32;6.10;;;26.40;56.20;;;;;;4958386;28;20023;-70
2021/06/19 02:20:06;;;;;;;14.82;6.30;;;26.20;56.90;;;;;;4958195;28;20030;-71
2021/06/19 02:22:32;;;;;;;9.48;6.10;;;26.10;57.20;;;;;;4958145;28;20070;-71
2021/06/19 02:24:58;;;;;;;14.65;6.30;;;26.40;57.10;;;;;;4958160;29;20544;-71
2021/06/19 02:27:25;;;;;;;13.20;6.85;;;26.40;56.60;;;;;;4957906;28;20039;-72
2021/06/19 02:29:51;;;;;;;11.85;5.82;;;26.30;56.80;;;;;;4958156;28;20067;-70
2021/06/19 02:32:16;;;;;;;8.35;6.00;;;26.30;56.80;;;;;;4958040;28;20416;-71
2021/06/19 02:34:42;;;;;;;15.65;6.65;;;26.30;56.70;;;;;;4958145;28;20075;-72
2021/06/19 02:37:08;;;;;;;11.60;6.55;;;26.40;56.60;;;;;;4956462;28;20551;-71
2021/06/19 02:39:34;;;;;;;13.30;7.10;;;26.50;56.60;;;;;;4957982;28;20052;-70
2021/06/19 02:42:00;;;;;;;10.38;5.90;;;26.50;56.50;;;;;;4958104;28;20042;-71
2021/06/19 02:44:25;;;;;;;10.35;6.10;;;26.50;56.30;;;;;;4957806;28;20019;-71
2021/06/19 02:46:51;;;;;;;13.43;7.05;;;26.60;56.30;;;;;;4957682;28;20046;-70
2021/06/19 02:49:17;;;;;;;11.88;6.38;;;26.50;56.10;;;;;;4957757;28;20123;-70
2021/06/19 02:51:43;;;;;;;13.02;7.07;;;26.50;56.20;;;;;;4957487;28;20023;-71
2021/06/19 02:54:08;;;;;;;10.63;7.03;;;26.50;56.30;;;;;;4956024;29;20477;-72
2021/06/19 02:56:34;;;;;;;12.88;6.70;;;26.30;56.50;;;;;;4957352;29;20389;-71
2021/06/19 02:59:00;;;;;;;11.13;6.20;;;26.00;56.90;;;;;;4957579;28;20044;-70
2021/06/19 03:01:26;;;;;;;11.18;6.00;;;25.80;57.30;;;;;;4957271;28;20086;-71
2021/06/19 03:03:51;;;;;;;11.63;6.47;;;25.80;57.40;;;;;;4958962;28;20036;-71
2021/06/19 03:06:17;;;;;;;10.43;5.88;;;25.90;57.50;;;;;;4958701;28;20023;-71
2021/06/19 03:08:43;;;;;;;13.40;6.43;;;25.90;56.90;;;;;;4957315;29;20473;-71
2021/06/19 03:11:09;;;;;;;11.48;5.90;;;25.80;57.00;;;;;;4955891;28;20027;-70
2021/06/19 03:13:35;;;;;;;8.68;5.88;;;25.60;57.00;;;;;;4956785;28;20059;-70
2021/06/19 03:16:01;;;;;;;9.85;5.70;;;25.60;57.20;;;;;;4957247;28;20019;-71
2021/06/19 03:18:28;;;;;;;10.88;6.07;;;25.80;56.90;;;;;;4956921;28;20465;-70
2021/06/19 03:20:54;;;;;;;10.98;6.32;;;25.90;56.90;;;;;;4956687;28;20043;-70
2021/06/19 03:23:19;;;;;;;12.57;6.82;;;25.80;56.60;;;;;;4956760;28;20031;-69
2021/06/19 03:25:46;;;;;;;15.60;6.72;;;25.60;56.80;;;;;;4957038;28;20055;-71
2021/06/19 03:28:13;;;;;;;12.35;7.18;;;25.40;57.40;;;;;;4957009;28;20081;-70
2021/06/19 03:30:42;;;;;;;14.80;7.00;;;25.10;57.90;;;;;;4956819;28;20031;-70
2021/06/19 03:33:09;;;;;;;13.32;7.63;;;25.20;57.90;;;;;;4956865;28;20040;-70
2021/06/19 03:35:35;;;;;;;12.00;6.88;;;25.00;58.10;;;;;;4956870;28;20015;-70
2021/06/19 03:38:01;;;;;;;11.30;6.85;;;25.00;58.30;;;;;;4956935;28;20026;-71
2021/06/19 03:40:30;;;;;;;12.80;7.45;;;24.90;57.50;;;;;;4956838;28;20036;-70
2021/06/19 03:42:56;;;;;;;14.20;6.97;;;24.90;57.80;;;;;;4956809;28;20031;-70
2021/06/19 03:45:27;;;;;;;12.93;7.38;;;24.90;59.00;;;;;;4956780;28;20030;-70
2021/06/19 03:47:54;;;;;;;12.65;7.50;;;24.90;58.80;;;;;;4956577;28;20082;-70
2021/06/19 03:50:21;;;;;;;10.50;6.93;;;24.80;58.90;;;;;;4956700;29;20030;-70
2021/06/19 03:52:47;;;;;;;10.07;7.32;;;24.80;58.70;;;;;;4956404;28;20114;-69
2021/06/19 03:55:13;;;;;;;11.00;7.68;;;24.70;58.90;;;;;;4956054;28;20517;-70
2021/06/19 03:57:39;;;;;;;12.30;6.70;;;24.70;59.20;;;;;;4956214;28;20031;-70
2021/06/19 04:00:10;;;;;;;13.25;7.63;;;24.70;59.20;;;;;;4956512;28;20031;-69
2021/06/19 04:02:36;;;;;;;10.80;6.40;;;24.60;59.30;;;;;;4956338;28;20380;-70
2021/06/19 04:05:03;;;;;;;13.73;7.15;;;24.40;59.60;;;;;;4956161;28;20102;-71
2021/06/19 04:07:28;;;;;;;12.65;7.18;;;24.80;59.30;;;;;;4955823;28;20055;-70
2021/06/19 04:09:55;;;;;;;13.98;7.45;;;25.00;58.60;;;;;;4956197;28;20077;-69
2021/06/19 04:12:21;;;;;;;14.70;7.47;;;25.10;58.20;;;;;;4956088;28;20504;-69
2021/06/19 04:14:48;;;;;;;10.77;6.90;;;25.20;57.80;;;;;;4956156;28;20384;-70
2021/06/19 04:17:14;;;;;;;11.27;6.88;;;25.40;57.50;;;;;;4955864;28;20393;-70
2021/06/19 04:19:41;;;;;;;12.95;7.15;;;25.50;57.20;;;;;;4955632;28;20027;-70
2021/06/19 04:22:07;;;;;;;11.55;6.90;;;25.40;57.00;;;;;;4955787;28;20521;-71
2021/06/19 04:24:34;;;;;;;10.63;6.75;;;25.30;57.10;;;;;;4955793;28;20027;-72
2021/06/19 04:27:01;;;;;;;13.40;7.50;;;25.40;56.70;;;;;;4955745;28;20046;-70
2021/06/19 04:29:28;;;;;;;11.48;6.90;;;25.40;56.70;;;;;;4954699;28;20490;-70
2021/06/19 04:31:55;;;;;;;10.15;6.60;;;25.40;56.80;;;;;;4955906;28;20024;-70
2021/06/19 04:34:22;;;;;;;10.35;6.53;;;25.70;56.50;;;;;;4955534;28;20086;-71
2021/06/19 04:36:49;;;;;;;11.25;6.57;;;25.50;57.10;;;;;;4955705;28;20053;-70
2021/06/19 04:39:15;;;;;;;11.57;6.50;;;25.70;57.20;;;;;;4955796;28;20074;-71
2021/06/19 04:46:50;;;;;;;10.40;6.80;;;26.00;56.50;;;;;;4955770;28;20027;-70
2021/06/19 04:49:16;;;;;;;10.15;6.25;;;25.80;56.60;;;;;;4955903;28;20027;-71
2021/06/19 04:51:43;;;;;;;10.25;6.30;;;25.90;56.90;;;;;;4955872;28;20047;-71
2021/06/19 04:54:09;;;;;;;8.65;6.30;;;26.00;56.50;;;;;;4955592;28;20036;-70
2021/06/19 04:56:37;;;;;;;11.23;6.63;;;26.00;56.60;;;;;;4955386;28;20030;-70
2021/06/19 04:59:02;;;;;;;8.00;5.78;;;26.00;56.40;;;;;;4955622;28;20027;-70
2021/06/19 05:01:28;;;;;;;9.50;6.63;;;26.00;56.40;;;;;;4953892;28;20456;-71
2021/06/19 05:03:54;;;;;;;13.65;7.15;;;26.10;56.50;;;;;;4955670;28;20395;-71
2021/06/19 05:06:20;;;;;;;9.48;6.65;;;26.20;56.20;;;;;;4955386;28;20423;-71
2021/06/19 05:08:45;;;;;;;12.00;6.85;;;26.20;56.00;;;;;;4955219;29;20023;-72
2021/06/19 05:11:11;;;;;;;17.25;7.53;;;26.30;55.70;;;;;;4955571;28;20147;-70
2021/06/19 05:13:37;;;;;;;10.27;6.03;;;26.40;55.80;;;;;;4954872;28;20484;-70
2021/06/19 05:16:03;;;;;;;12.38;7.10;;;26.70;55.40;;;;;;4955293;28;20035;-74
2021/06/19 05:18:29;;;;;;;12.60;7.15;;;27.00;54.60;;;;;;4955448;28;20027;-72
2021/06/19 05:20:55;;;;;;;10.95;6.28;;;27.20;54.10;;;;;;4955233;28;20042;-71
2021/06/19 05:23:21;;;;;;;13.43;6.70;;;27.50;53.70;;;;;;4955444;28;20031;-72
2021/06/19 05:25:47;;;;;;;11.07;6.25;;;27.70;53.00;;;;;;4955149;28;20078;-70
2021/06/19 05:28:13;;;;;;;9.80;6.03;;;28.00;52.70;;;;;;4954040;29;20086;-72
2021/06/19 05:30:39;;;;;;;11.43;6.38;;;28.20;52.30;;;;;;4955073;28;20400;-71
2021/06/19 05:33:05;;;;;;;13.60;6.18;;;28.40;52.10;;;;;;4955353;28;20563;-71
2021/06/19 05:35:31;;;;;;;10.63;6.47;;;28.30;51.80;;;;;;4955025;28;20074;-71
2021/06/19 05:37:57;;;;;;;13.70;6.55;;;28.40;51.70;;;;;;4955309;28;20496;-72
2021/06/19 05:40:23;;;;;;;10.73;6.38;;;28.00;52.20;;;;;;4955238;28;20062;-72
2021/06/19 05:42:48;;;;;;;13.05;6.47;;;27.70;52.60;;;;;;4955036;28;20029;-71
2021/06/19 05:45:15;;;;;;;10.45;6.00;;;27.70;52.80;;;;;;4956304;28;20023;-71
2021/06/19 05:47:41;;;;;;;14.45;6.20;;;28.10;52.40;;;;;;4958985;28;20074;-73
2021/06/19 05:50:10;;;;;;;8.25;5.63;;;28.30;51.80;;;;;;4958927;28;20046;-71
2021/06/19 05:52:36;;;;;;;10.55;6.10;;;28.50;51.30;;;;;;4958968;28;20511;-72
2021/06/19 05:55:02;;;;;;;13.02;6.60;;;28.60;51.40;;;;;;4958846;28;20027;-72
2021/06/19 05:57:27;;;;;;;12.02;5.95;;;28.90;51.30;;;;;;4958511;28;20031;-72
2021/06/19 05:59:53;;;;;;;14.20;6.60;;;29.10;50.80;;;;;;4959109;28;20031;-72
2021/06/19 06:02:19;;;;;;;13.73;6.50;;;29.20;50.60;;;;;;4958440;28;20362;-72
2021/06/19 06:04:45;;;;;;;9.30;6.05;;;29.30;50.40;;;;;;4958567;28;20106;-71
2021/06/19 06:07:10;;;;;;;11.57;6.65;;;29.30;50.50;;;;;;4958629;28;20024;-72
2021/06/19 06:09:38;;;;;;;12.43;6.68;;;29.00;50.60;;;;;;4958322;28;20020;-71
2021/06/19 06:12:05;;;;;;;12.68;6.13;;;29.10;50.70;;;;;;4958497;28;20039;-72
2021/06/19 06:14:31;;;;;;;12.10;6.65;;;29.10;50.70;;;;;;4958678;28;20038;-73
2021/06/19 06:16:56;;;;;;;11.18;5.88;;;29.00;50.70;;;;;;4958330;28;20376;-72
2021/06/19 06:19:23;;;;;;;8.50;5.50;;;29.00;50.80;;;;;;4957164;29;20035;-71
2021/06/19 06:21:49;;;;;;;15.82;6.13;;;28.70;50.80;;;;;;4957038;28;20047;-72
2021/06/19 06:24:15;;;;;;;11.80;6.32;;;28.50;51.30;;;;;;4959065;28;20031;-72
2021/06/19 06:26:41;;;;;;;12.50;5.85;;;28.50;51.40;;;;;;4958188;28;20023;-71
2021/06/19 06:29:08;;;;;;;15.05;6.07;;;28.30;51.10;;;;;;4958357;28;20042;-71
2021/06/19 06:31:34;;;;;;;10.45;6.13;;;28.60;51.70;;;;;;4957903;28;20469;-71
2021/06/19 06:34:00;;;;;;;12.52;6.68;;;28.80;51.30;;;;;;4957544;28;20023;-71
2021/06/19 06:36:26;;;;;;;10.77;5.53;;;28.80;50.90;;;;;;4957617;28;20371;-71
2021/06/19 06:38:51;;;;;;;11.95;6.28;;;28.70;51.10;;;;;;4957746;28;20035;-72
2021/06/19 06:41:17;;;;;;;12.30;5.90;;;28.90;51.10;;;;;;4957802;28;20035;-71
2021/06/19 06:43:43;;;;;;;11.70;5.80;;;28.90;50.70;;;;;;4957877;28;20096;-72
2021/06/19 06:46:08;;;;;;;12.48;5.65;;;29.20;50.60;;;;;;4956292;28;20029;-72
2021/06/19 06:48:34;;;;;;;11.02;5.97;;;29.60;50.20;;;;;;4957890;28;20073;-71
2021/06/19 06:51:00;;;;;;;9.75;5.45;;;29.50;50.00;;;;;;4957429;28;20089;-73
2021/06/19 06:53:26;;;;;;;12.02;5.55;;;29.50;49.80;;;;;;4957446;28;20516;-72
2021/06/19 06:55:51;;;;;;;8.25;5.65;;;29.60;49.30;;;;;;4956102;28;20388;-73
2021/06/19 06:58:17;;;;;;;7.65;4.93;;;29.70;49.00;;;;;;4957607;28;20147;-71
2021/06/19 07:00:43;;;;;;;8.68;5.57;;;29.80;48.60;;;;;;4956132;29;20031;-73
2021/06/19 07:03:09;;;;;;;9.13;5.00;;;30.00;48.50;;;;;;4957472;28;20062;-71
2021/06/19 07:05:34;;;;;;;6.75;4.60;;;30.10;48.30;;;;;;4957397;28;20095;-68
2021/06/19 07:08:00;;;;;;;7.78;4.60;;;30.00;48.00;;;;;;4957221;28;20046;-71
2021/06/19 07:10:26;;;;;;;12.52;5.10;;;30.00;48.30;;;;;;4957290;28;20354;-74
2021/06/19 07:12:51;;;;;;;9.05;4.85;;;29.90;48.10;;;;;;4957056;28;20091;-68
2021/06/19 07:15:18;;;;;;;7.82;4.65;;;29.80;48.20;;;;;;4957415;28;20020;-68
2021/06/19 07:17:44;;;;;;;10.23;4.65;;;29.80;48.10;;;;;;4957099;28;20043;-68
2021/06/19 07:20:11;;;;;;;10.32;4.65;;;30.00;48.10;;;;;;4957128;28;20031;-68
2021/06/19 07:22:37;;;;;;;13.55;4.53;;;30.10;47.60;;;;;;4956649;28;20162;-69
2021/06/19 07:25:05;;;;;;;12.30;4.75;;;30.00;48.00;;;;;;4955606;29;20511;-70
2021/06/19 07:27:31;;;;;;;12.95;4.90;;;29.90;48.10;;;;;;4957089;28;20031;-69
2021/06/19 07:29:57;;;;;;;6.07;4.13;;;29.90;47.70;;;;;;4956804;28;20030;-71
2021/06/19 07:32:23;;;;;;;8.15;4.00;;;29.80;48.00;;;;;;4956877;28;20031;-69
2021/06/19 07:34:49;;;;;;;12.43;4.68;;;29.80;48.40;;;;;;4955510;29;20485;-68
2021/06/19 07:37:14;;;;;;;11.52;4.68;;;29.70;47.90;;;;;;4956842;28;20043;-69
2021/06/19 07:39:40;;;;;;;9.95;4.82;;;29.60;48.00;;;;;;4956866;28;20031;-73
2021/06/19 07:42:06;;;;;;;8.00;4.68;;;29.70;47.90;;;;;;4956525;28;20045;-69
2021/06/19 07:44:32;;;;;;;10.55;4.57;;;29.50;47.70;;;;;;4956724;28;20075;-68
2021/06/19 07:47:02;;;;;;;9.38;4.68;;;29.60;47.70;;;;;;4951311;28;20031;-68
2021/06/19 07:49:28;;;;;;;10.35;4.57;;;29.70;47.40;;;;;;4955512;29;20495;-68
2021/06/19 07:51:54;;;;;;;10.35;4.72;;;29.80;47.30;;;;;;4950414;28;20039;-73
2021/06/19 07:54:20;;;;;;;8.73;4.60;;;29.80;47.50;;;;;;4945328;29;20024;-70
2021/06/19 07:56:47;;;;;;;7.30;4.50;;;29.80;47.40;;;;;;4956031;28;20028;-66
2021/06/19 07:59:15;;;;;;;12.45;4.95;;;29.70;47.90;;;;;;4945548;28;20036;-83
2021/06/19 08:01:41;;;;;;;7.25;4.05;;;29.50;47.00;;;;;;4944173;29;20396;-66
2021/06/19 08:04:07;;;;;;;12.02;5.45;;;29.40;49.20;;;;;;4947463;28;20024;-69
2021/06/19 08:06:32;;;;;;;14.98;5.35;;;29.60;47.60;;;;;;4945065;29;20430;-70
2021/06/19 08:08:58;;;;;;;14.45;5.22;;;29.80;47.60;;;;;;4955311;28;20058;-70
2021/06/19 08:11:26;;;;;;;12.68;5.95;;;29.90;47.60;;;;;;4956233;28;20020;-66
2021/06/19 08:13:53;;;;;;;11.60;5.60;;;29.90;47.60;;;;;;4955704;28;20518;-66
2021/06/19 08:16:19;;;;;;;12.25;5.63;;;29.80;47.50;;;;;;4955831;28;20101;-68
2021/06/19 08:18:46;;;;;;;11.85;5.13;;;29.80;47.80;;;;;;4955777;28;20027;-68
2021/06/19 08:21:14;;;;;;;9.75;4.97;;;30.00;47.40;;;;;;4955921;28;20433;-66
2021/06/19 08:23:43;;;;;;;15.02;5.60;;;30.10;47.30;;;;;;4956254;28;20114;-70
2021/06/19 08:26:10;;;;;;;14.32;5.40;;;30.20;47.50;;;;;;4941852;29;20159;-68
2021/06/19 08:28:36;;;;;;;11.02;4.53;;;30.10;46.50;;;;;;4936584;29;20502;-71
2021/06/19 08:31:02;;;;;;;10.35;4.82;;;30.00;47.30;;;;;;4936476;29;20040;-70
2021/06/19 08:33:31;;;;;;;17.27;5.82;;;30.00;47.30;;;;;;4936386;29;20090;-70
2021/06/19 08:35:57;;;;;;;15.80;5.00;;;30.10;47.40;;;;;;4936288;29;20028;-70
2021/06/19 08:38:23;;;;;;;8.82;4.45;;;30.20;47.10;;;;;;4936486;29;20019;-67
2021/06/19 08:40:48;;;;;;;9.63;4.78;;;30.00;46.60;;;;;;4936888;29;20032;-69
2021/06/19 08:43:17;;;;;;;14.23;4.95;;;30.00;46.60;;;;;;4936485;29;20106;-69
2021/06/19 08:45:45;;;;;;;10.05;5.18;;;30.10;46.20;;;;;;4919538;29;20370;-70
2021/06/19 08:48:11;;;;;;;14.18;5.78;;;30.00;46.50;;;;;;4936374;29;20410;-67
2021/06/19 08:50:39;;;;;;;11.57;5.15;;;30.10;46.60;;;;;;4954881;28;20066;-69
2021/06/19 08:53:06;;;;;;;9.52;4.85;;;30.10;46.00;;;;;;4954766;28;20110;-71
2021/06/19 08:55:33;;;;;;;13.43;5.53;;;30.20;45.70;;;;;;4955058;28;20130;-71
2021/06/19 08:57:59;;;;;;;15.88;6.07;;;30.20;44.90;;;;;;4955134;28;20023;-68
2021/06/19 09:00:25;;;;;;;17.48;5.47;;;30.30;45.30;;;;;;4955032;28;20118;-69
2021/06/19 09:02:52;;;;;;;10.43;4.70;;;30.40;45.10;;;;;;4955039;28;20476;-69
2021/06/19 09:05:29;;;;;;;15.95;4.47;;;30.40;44.80;;;;;;4955185;28;20027;-70
2021/06/19 09:07:57;;;;;;;12.30;4.03;;;30.40;44.70;;;;;;4955171;28;20046;-70
2021/06/19 09:10:37;;;;;;;10.68;4.20;;;30.30;45.00;;;;;;4954916;28;20114;-69
2021/06/19 09:13:17;;;;;;;9.90;4.07;;;30.30;45.00;;;;;;4954709;28;20186;-67
2021/06/19 09:15:56;;;;;;;11.73;4.60;;;30.30;44.30;;;;;;4954981;28;20147;-68
2021/06/19 09:18:24;;;;;;;10.68;4.50;;;30.60;45.00;;;;;;4953788;29;20062;-73
2021/06/19 09:20:53;;;;;;;7.13;3.90;;;30.80;44.40;;;;;;4954677;28;20065;-67
2021/06/19 09:23:38;;;;;;;6.60;3.00;;;30.80;43.40;;;;;;4954854;29;20034;-69
2021/06/19 09:26:23;;;;;;;6.45;3.22;;;30.50;41.70;;;;;;4954652;28;20102;-68
2021/06/19 09:29:16;;;;;;;8.15;3.15;;;30.30;41.10;;;;;;4955055;28;20435;-69
2021/06/19 09:31:53;;;;;;;6.25;3.10;;;30.30;40.60;;;;;;4954708;28;20069;-68
2021/06/19 09:34:28;;;;;;;7.45;3.80;;;30.50;40.60;;;;;;4954591;28;20043;-67
2021/06/19 09:37:07;;;;;;;9.90;2.78;;;30.60;40.70;;;;;;4954820;28;20373;-67
2021/06/19 09:39:35;;;;;;;7.13;2.92;;;30.70;40.10;;;;;;4953233;29;20119;-68
2021/06/19 09:42:08;;;;;;;5.70;2.88;;;30.70;39.70;;;;;;4954965;28;20045;-67
2021/06/19 09:44:42;;;;;;;9.07;3.05;;;30.70;39.80;;;;;;4954641;28;20031;-71
2021/06/19 09:47:09;;;;;;;7.22;3.30;;;30.70;39.70;;;;;;4953574;28;20048;-67
2021/06/19 09:49:38;;;;;;;6.95;3.55;;;30.70;40.00;;;;;;4954104;28;20059;-67
2021/06/19 09:52:04;;;;;;;10.13;3.97;;;30.90;40.60;;;;;;4953251;29;20035;-68
2021/06/19 09:54:39;;;;;;;8.13;3.50;;;31.00;40.90;;;;;;4954504;28;20074;-67
2021/06/19 09:57:07;;;;;;;7.18;3.10;;;31.00;40.60;;;;;;4954093;28;20123;-69
2021/06/19 09:59:35;;;;;;;5.38;3.20;;;31.10;40.40;;;;;;4954362;28;20019;-70
2021/06/19 10:02:15;;;;;;;7.50;3.30;;;31.30;39.50;;;;;;4954461;28;20386;-69
2021/06/19 10:04:42;;;;;;;10.60;3.13;;;31.30;39.60;;;;;;4954570;28;20357;-68
2021/06/19 10:07:07;;;;;;;5.75;2.80;;;31.30;38.20;;;;;;4954331;28;20020;-68
2021/06/19 10:09:34;;;;;;;7.50;3.58;;;31.40;38.00;;;;;;4954547;28;20030;-69
2021/06/19 10:12:01;;;;;;;7.05;3.65;;;31.50;38.30;;;;;;4953950;28;20054;-69
2021/06/19 10:14:29;;;;;;;6.93;3.72;;;31.60;39.20;;;;;;4953344;28;20499;-74
2021/06/19 10:16:57;;;;;;;8.27;3.40;;;31.60;38.90;;;;;;4953910;28;20453;-70
2021/06/19 10:19:25;;;;;;;7.47;3.80;;;31.50;39.50;;;;;;4935289;29;20437;-73
2021/06/19 10:21:55;;;;;;;10.68;3.75;;;31.30;39.90;;;;;;4934782;29;20046;-71
2021/06/19 10:24:23;;;;;;;12.93;3.67;;;31.10;40.70;;;;;;4934944;29;20490;-71
2021/06/19 10:26:51;;;;;;;9.50;3.90;;;31.20;40.30;;;;;;4935888;29;20058;-71
2021/06/19 10:29:18;;;;;;;11.85;3.67;;;31.40;40.70;;;;;;4938060;29;20087;-71
2021/06/19 10:31:52;;;;;;;12.18;3.80;;;31.50;40.50;;;;;;4936388;29;20039;-76
2021/06/19 10:34:20;;;;;;;8.70;3.33;;;31.70;40.40;;;;;;4937381;29;20496;-72
2021/06/19 10:36:47;;;;;;;5.93;3.28;;;31.80;39.90;;;;;;4938869;29;20079;-75
2021/06/19 10:39:28;;;;;;;8.27;3.75;;;31.80;39.70;;;;;;4941082;29;20030;-68
2021/06/19 10:41:54;;;;;;;8.02;3.30;;;31.90;39.50;;;;;;4948411;28;20055;-72
2021/06/19 10:44:46;;;;;;;6.75;3.40;;;31.90;39.00;;;;;;4944338;29;20027;-71
2021/06/19 10:47:16;;;;;;;8.63;3.30;;;32.00;39.20;;;;;;4945266;29;20118;-72
2021/06/19 10:49:42;;;;;;;7.43;3.78;;;32.00;39.10;;;;;;4951541;29;20067;-74
2021/06/19 10:52:24;;;;;;;9.38;3.83;;;31.80;37.80;;;;;;4938688;29;20468;-72
2021/06/19 10:55:08;;;;;;;8.18;3.78;;;32.10;38.50;;;;;;4937312;29;20031;-77
2021/06/19 10:57:54;;;;;;;11.55;4.72;;;32.20;38.30;;;;;;4938570;29;20030;-76
2021/06/19 11:00:26;;;;;;;7.93;4.28;;;32.20;38.10;;;;;;4938196;29;20076;-72
2021/06/19 11:02:54;;;;;;;10.37;4.60;;;32.20;39.10;;;;;;4938459;29;20031;-74
2021/06/19 11:05:45;;;;;;;15.05;4.60;;;32.30;39.00;;;;;;4938544;29;20039;-71
2021/06/19 11:08:14;;;;;;;8.88;3.65;;;32.30;39.50;;;;;;4938946;29;20035;-82
2021/06/19 11:10:46;;;;;;;8.15;3.75;;;32.30;38.20;;;;;;4938588;29;20020;-73
2021/06/19 11:13:31;;;;;;;12.97;4.13;;;32.40;38.20;;;;;;4937963;29;20136;-70
2021/06/19 11:16:21;;;;;;;7.63;3.28;;;32.40;38.30;;;;;;4938939;29;20036;-77
2021/06/19 11:21:26;;;;;;;10.05;3.35;;;32.20;37.00;;;;;;4937824;29;20035;-80
2021/06/19 11:24:07;;;;;;;7.82;3.25;;;32.20;37.40;;;;;;4937911;29;20440;-74
2021/06/19 11:26:56;;;;;;;6.90;3.45;;;32.20;37.30;;;;;;4937785;29;20031;-78
2021/06/19 11:29:41;;;;;;;14.05;3.80;;;32.30;38.10;;;;;;4937584;29;20115;-76
2021/06/19 11:32:34;;;;;;;10.70;3.67;;;32.40;37.20;;;;;;4938384;29;20020;-80
2021/06/19 11:35:20;;;;;;;7.18;3.80;;;32.50;37.30;;;;;;4937858;29;20023;-74
2021/06/19 11:37:53;;;;;;;7.82;3.20;;;32.50;36.50;;;;;;4936331;29;20031;-75
2021/06/19 11:40:27;;;;;;;6.45;3.10;;;32.50;36.40;;;;;;4936199;29;20062;-72
2021/06/19 11:42:54;;;;;;;5.55;3.10;;;32.60;36.60;;;;;;4936214;29;20039;-77
2021/06/19 11:45:20;;;;;;;5.88;3.05;;;32.60;36.90;;;;;;4937061;29;20020;-70
2021/06/19 11:47:47;;;;;;;7.55;3.13;;;32.60;36.30;;;;;;4937448;29;20461;-69
2021/06/19 11:50:14;;;;;;;16.02;3.20;;;32.50;35.30;;;;;;4937534;29;20444;-72
2021/06/19 11:52:39;;;;;;;7.90;2.90;;;32.40;34.90;;;;;;4937578;29;20020;-74
2021/06/19 11:55:05;;;;;;;5.97;2.97;;;32.40;35.30;;;;;;4937098;29;20385;-69
2021/06/19 11:57:31;;;;;;;6.85;3.00;;;32.40;35.60;;;;;;4937065;29;20020;-69
2021/06/19 12:00:11;;;;;;;8.32;2.67;;;32.50;35.20;;;;;;4937006;29;20553;-69
2021/06/19 12:02:38;;;;;;;7.68;3.10;;;32.50;35.10;;;;;;4937071;29;20032;-70
2021/06/19 12:05:11;;;;;;;7.93;2.92;;;32.40;34.40;;;;;;4937023;29;20031;-71
2021/06/19 12:07:37;;;;;;;8.55;3.13;;;32.40;34.70;;;;;;4936823;29;20027;-68
2021/06/19 12:10:38;;;;;;;8.77;2.95;;;32.40;34.70;;;;;;4935891;29;20020;-68
2021/06/19 12:13:07;;;;;;;7.45;2.95;;;32.50;35.50;;;;;;4936844;29;20068;-69
2021/06/19 12:15:34;;;;;;;7.28;3.20;;;32.50;34.70;;;;;;4936702;29;20040;-71
2021/06/19 12:18:03;;;;;;;4.93;2.83;;;32.60;34.80;;;;;;4937110;29;20063;-69
2021/06/19 12:20:30;;;;;;;6.13;3.05;;;32.70;35.10;;;;;;4936981;29;20071;-74
2021/06/19 12:23:01;;;;;;;8.07;3.10;;;32.70;34.70;;;;;;4939974;29;20445;-71
2021/06/19 12:25:32;;;;;;;6.50;3.10;;;32.70;35.00;;;;;;4939717;29;20039;-80
2021/06/19 12:27:59;;;;;;;7.65;3.08;;;32.70;34.60;;;;;;4938879;29;20028;-71
2021/06/19 12:30:26;;;;;;;7.05;2.80;;;32.70;34.10;;;;;;4935376;29;20524;-73
2021/06/19 12:32:52;;;;;;;6.78;2.90;;;32.70;33.70;;;;;;4936446;29;20071;-71
2021/06/19 12:35:20;;;;;;;21.50;4.82;;;32.80;33.70;;;;;;4936538;29;20545;-71
2021/06/19 12:37:56;;;;;;;10.75;3.05;;;32.80;34.10;;;;;;4934903;29;20059;-69
2021/06/19 12:40:35;;;;;;;7.13;2.92;;;32.80;34.00;;;;;;4936374;29;20086;-71
2021/06/19 12:43:08;;;;;;;13.70;5.00;;;32.80;34.10;;;;;;4936436;29;20019;-71
2021/06/19 12:45:43;;;;;;;18.33;6.10;;;32.90;34.30;;;;;;4936236;29;20015;-64
2021/06/19 12:48:27;;;;;;;10.07;3.70;;;33.00;34.10;;;;;;4937524;29;20378;-77
2021/06/19 12:51:00;;;;;;;;;;;33.10;33.90;;;;;;4941065;29;20047;-76
2021/06/19 12:53:28;;;;;;;24.05;7.72;;;33.20;33.30;;;;;;4951380;28;19910;-77